Date,TemperatureHighF,TemperatureAvgF,TemperatureLowF,DewpointHighF,DewpointAvgF,DewpointLowF,HumidityHigh,HumidityAvg,HumidityLow,PressureMaxIn,PressureMinIn,WindSpeedMaxMPH,WindSpeedAvgMPH,GustSpeedMaxMPH,PrecipitationSumIn
2013-1-1,32.9,24.8,12.6,27.1,13.3,2.1,86,62,44,29.80,29.56,26,11,33,0.00
2013-1-2,20.8,13.0,4.3,6.6,1.1,-5.5,72,59,46,29.98,29.78,22,10,34,0.00
2013-1-3,22.7,12.4,2.8,6.0,1.0,-5.6,81,60,47,30.04,29.88,14,4,17,0.00
2013-1-4,35.8,22.9,3.1,27.4,16.8,-0.1,97,78,69,29.87,29.67,13,5,27,0.00
2013-1-5,35.2,29.1,13.4,27.7,17.8,9.7,85,64,46,30.23,29.67,29,9,38,0.00
2013-1-6,32.4,24.3,11.7,27.8,20.2,8.6,87,84,74,30.19,29.87,10,1,14,0.02
2013-1-7,29.3,21.3,11.4,25.4,15.1,8.3,87,77,58,30.37,29.93,11,2,18,0.00
2013-1-8,40.6,32.1,14.4,32.1,24.8,11.2,87,75,57,30.32,30.14,32,6,37,0.00
2013-1-9,44.9,33.0,17.3,39.1,27.8,14.1,87,81,73,30.38,29.81,17,3,24,0.00
2013-1-10,44.9,40.0,32.3,32.4,28.2,22.2,78,63,53,30.47,29.83,31,15,42,0.00
2013-1-11,39.3,33.4,26.9,33.0,23.9,20.0,79,68,57,30.49,30.23,12,2,14,0.00
2013-1-12,46.3,41.0,37.9,41.4,35.4,29.5,84,80,67,30.20,30.07,4,1,7,0.00
2013-1-13,45.2,7.0,-52.2,32.3,-29.7,-99.9,63,48,45,30.10,29.90,17,4,20,0.00
2013-1-14,55.9,-4.3,-50.1,48.4,-16.9,-89.3,78,54,6,30.18,29.82,14,7,26,0.00
2013-1-15,38.9,34.6,28.8,30.8,26.3,22.8,85,72,61,30.27,30.18,5,0,7,0.00
2013-1-16,40.5,35.1,31.6,27.8,13.5,-97.6,84,62,50,30.23,29.71,7,2,18,0.42
2013-1-17,39.8,30.4,15.5,33.3,18.6,-0.8,83,62,43,30.10,29.71,30,8,31,0.00
2013-1-18,17.5,12.9,9.0,7.1,-1.6,-7.5,83,53,38,30.36,30.08,20,6,26,0.00
2013-1-19,38.6,30.8,12.7,29.1,24.1,8.8,84,76,65,30.31,29.81,20,6,34,0.00
2013-1-20,48.8,41.6,24.0,39.9,30.0,10.2,83,64,41,29.80,29.39,31,13,40,0.00
2013-1-21,25.3,21.7,16.4,16.9,5.3,0.0,84,50,34,30.00,29.81,25,8,34,0.00
2013-1-22,21.4,15.4,11.4,17.0,6.3,-7.7,83,67,40,29.96,29.72,16,4,28,0.00
2013-1-23,11.1,5.1,1.7,-8.8,-12.1,-13.9,50,44,38,30.02,29.96,23,14,33,0.00
2013-1-24,13.2,6.3,-0.5,-6.4,-10.1,-13.8,56,47,35,30.03,29.85,27,15,35,0.00
2013-1-25,20.5,12.8,5.5,4.5,-0.6,-7.2,63,55,42,30.13,30.02,21,8,25,0.00
2013-1-26,22.6,16.7,12.1,4.6,-0.6,-4.0,62,46,33,30.05,29.91,19,7,28,0.00
2013-1-27,25.3,17.4,11.6,5.7,2.4,-1.3,58,51,42,30.35,30.05,22,10,30,0.00
2013-1-28,28.4,20.7,9.9,19.9,7.7,0.9,84,59,32,30.37,30.04,10,2,13,0.05
2013-1-29,36.0,28.2,17.0,30.3,22.9,12.2,83,80,75,30.17,30.02,3,1,8,0.00
2013-1-30,51.1,33.2,-39.3,35.0,-35.0,-99.9,81,50,34,30.11,29.42,24,12,34,0.20
2013-1-31,57.5,48.9,33.8,45.6,23.6,-90.3,80,52,41,29.40,28.81,33,22,54,0.11
2013-2-1,33.1,26.8,17.9,18.8,10.2,2.8,58,49,39,29.96,29.38,29,14,33,0.00
2013-2-2,26.6,21.2,13.7,20.4,9.0,1.6,84,60,41,30.15,29.97,19,5,28,0.02
2013-2-3,29.3,26.0,22.9,21.0,19.3,17.4,84,76,67,30.01,29.62,10,3,19,0.02
2013-2-4,28.5,23.8,18.6,17.4,10.3,-1.5,77,57,38,29.80,29.56,29,12,33,0.00
2013-2-5,24.9,18.4,13.5,9.7,1.5,-3.9,74,48,31,29.98,29.81,22,5,28,0.00
2013-2-6,37.5,26.7,14.3,28.0,16.3,-2.3,83,67,34,30.21,29.86,20,6,28,0.00
2013-2-7,19.4,14.4,10.0,0.6,-3.9,-8.8,62,44,28,30.55,30.23,16,4,23,0.00
2013-2-8,22.5,17.0,12.9,16.4,10.5,0.4,84,76,54,30.56,29.84,22,7,33,0.05
2013-2-9,19.5,16.0,13.0,14.4,11.5,9.1,85,82,70,30.02,29.60,32,17,43,0.00
2013-2-10,35.6,23.2,13.4,13.4,8.3,3.8,84,55,31,30.30,30.03,21,9,31,0.00
2013-2-11,44.1,26.1,5.4,32.5,9.1,-99.9,85,70,43,30.31,29.54,12,2,23,0.68
2013-2-12,44.6,39.3,35.3,35.0,27.5,17.1,81,63,47,29.71,29.46,23,6,26,0.00
2013-2-13,43.7,37.3,31.0,31.2,28.2,25.6,82,70,52,29.75,29.67,16,5,22,0.00
2013-2-14,40.7,34.0,23.9,27.2,23.3,19.2,82,66,46,29.96,29.67,14,4,25,0.00
2013-2-15,45.2,33.8,21.1,38.6,27.6,15.2,82,78,66,29.97,29.87,19,5,32,0.00
2013-2-16,37.9,33.4,26.7,32.6,24.3,16.8,81,70,51,29.89,29.73,14,4,23,0.04
2013-2-17,26.9,24.1,21.0,22.2,17.6,10.5,83,76,61,29.71,29.04,38,19,52,0.01
2013-2-18,32.6,23.8,16.3,10.5,6.4,1.9,59,48,37,29.94,29.32,34,21,47,0.00
2013-2-19,44.7,32.4,19.8,33.2,16.0,1.5,80,52,30,30.05,29.60,10,3,26,0.29
2013-2-20,38.9,10.0,-59.1,31.7,-3.9,-91.6,83,62,54,29.57,29.36,20,11,31,0.53
2013-2-21,35.5,28.9,24.6,27.8,19.5,12.6,79,68,58,30.04,29.57,25,12,28,0.00
2013-2-22,39.4,33.3,26.5,26.5,24.1,22.5,85,69,52,30.32,30.06,14,3,25,0.00
2013-2-23,36.8,32.4,25.6,30.6,27.4,21.7,85,82,77,30.32,30.01,13,3,21,0.00
2013-2-24,33.1,32.1,30.5,27.3,21.9,17.9,81,66,58,30.00,29.74,11,3,17,0.25
2013-2-25,40.0,30.9,22.8,26.0,21.9,16.4,85,71,40,30.19,29.84,7,2,14,0.02
2013-2-26,41.1,33.5,23.4,31.5,26.4,18.7,84,76,55,30.31,30.20,9,1,12,0.00
2013-2-27,40.2,34.9,26.3,33.9,-2.8,-95.4,83,75,65,30.22,29.67,22,8,33,0.44
2013-2-28,41.1,34.9,33.6,28.5,-56.8,-99.1,77,64,48,29.66,29.49,17,5,28,0.34
2013-3-1,36.0,33.9,32.4,32.5,29.8,27.5,87,84,78,29.60,29.47,14,3,18,0.07
2013-3-2,38.3,35.0,32.5,33.9,30.4,26.9,87,83,78,29.58,29.54,14,5,22,0.10
2013-3-3,42.7,38.0,34.1,36.2,31.2,26.3,86,76,70,29.55,29.44,14,5,18,0.00
2013-3-4,36.9,34.8,33.0,31.8,30.2,28.3,87,83,78,29.59,29.41,24,11,25,0.07
2013-3-5,45.0,39.7,36.1,36.0,34.4,31.7,87,82,67,30.06,29.60,15,6,18,0.01
2013-3-6,38.7,36.7,34.9,34.3,31.1,27.4,87,80,73,30.22,30.07,19,8,32,0.00
2013-3-7,39.0,36.0,34.4,28.3,27.3,26.2,78,71,63,30.17,30.03,20,11,33,0.00
2013-3-8,49.0,39.2,32.0,28.7,25.9,23.0,87,61,37,30.14,29.99,21,13,31,0.00
2013-3-9,44.8,37.1,31.4,28.7,27.0,25.4,80,67,51,30.33,30.14,14,5,21,0.00
2013-3-10,37.0,32.6,25.4,32.3,27.6,22.1,88,82,73,30.40,30.27,9,2,15,0.00
2013-3-11,43.5,40.6,37.0,38.7,36.4,31.7,86,85,82,30.28,30.13,20,7,25,0.00
2013-3-12,50.3,46.7,43.6,45.5,41.1,36.9,85,81,66,30.14,29.75,19,7,33,0.69
2013-3-13,49.3,46.9,37.1,41.9,-19.8,-100.4,83,58,42,29.78,29.60,23,6,36,0.25
2013-3-14,41.1,33.7,25.3,32.3,26.7,17.9,88,76,54,29.66,29.55,19,4,28,0.02
2013-3-15,36.4,27.0,19.8,21.7,14.2,9.0,80,59,36,29.72,29.56,24,9,30,0.00
2013-3-16,36.1,29.9,25.4,24.1,17.0,11.9,85,61,37,29.83,29.56,16,6,21,0.00
2013-3-17,31.3,25.5,18.3,16.8,9.3,0.9,86,52,31,30.25,29.82,27,10,34,0.00
2013-3-18,36.3,24.7,11.3,21.8,9.4,0.9,83,55,27,30.39,30.24,14,3,22,0.00
2013-3-19,34.4,29.5,26.1,26.9,23.7,21.1,86,79,62,30.26,29.59,19,6,27,0.45
2013-3-20,36.2,29.1,22.2,28.3,23.3,18.9,87,79,62,29.67,29.53,18,9,28,0.02
2013-3-21,38.4,32.6,22.3,28.5,22.2,15.3,86,67,40,29.72,29.57,12,3,19,0.00
2013-3-22,39.8,31.3,21.6,24.6,20.1,18.0,87,65,41,29.58,29.52,16,5,26,0.00
2013-3-23,41.0,34.8,28.0,27.1,22.6,18.8,70,61,49,29.58,29.40,28,14,41,0.00
2013-3-24,36.4,36.0,35.8,26.6,26.5,26.3,69,68,67,29.56,29.55,15,12,22,0.00
2013-3-25,43.4,35.9,24.5,33.5,28.6,20.9,87,75,63,29.72,29.54,13,3,20,0.00
2013-3-26,47.2,40.6,33.7,31.2,28.2,25.6,79,62,46,29.65,29.49,13,7,30,0.00
2013-3-27,43.1,38.6,32.3,38.6,32.8,27.9,85,80,71,29.79,29.64,15,5,24,0.08
2013-3-28,50.2,42.2,34.9,36.7,34.4,31.1,86,75,55,29.90,29.80,10,3,23,0.00
2013-3-29,53.4,45.7,34.6,38.8,35.3,30.9,86,68,52,29.95,29.87,16,5,22,0.00
2013-3-30,53.5,43.3,31.2,35.5,30.5,22.9,86,64,30,29.99,29.92,17,3,22,0.00
2013-3-31,50.0,39.5,26.1,39.5,28.3,20.6,87,68,32,30.08,29.88,13,4,21,0.00
2013-4-1,50.0,44.1,37.4,43.1,37.6,27.8,85,78,68,29.86,29.43,16,8,30,1.19
2013-4-2,38.2,33.8,29.9,25.2,18.8,14.2,70,54,38,29.76,29.59,18,9,30,0.00
2013-4-3,37.4,32.7,30.5,22.9,17.7,14.1,73,54,38,29.78,29.74,25,13,35,0.00
2013-4-4,48.0,39.3,32.9,36.7,20.7,12.5,79,49,24,30.14,29.94,18,13,30,0.00
2013-4-5,48.5,44.2,40.0,36.9,34.1,26.9,80,68,45,29.94,29.60,21,12,29,0.00
2013-4-6,40.6,38.0,36.4,29.0,25.1,20.9,66,59,53,29.77,29.72,21,14,25,0.00
2013-4-7,45.8,37.1,24.6,39.8,28.9,17.5,84,72,58,30.30,29.95,19,9,39,0.00
2013-4-8,59.5,49.1,38.4,41.5,38.4,34.3,85,69,42,30.10,29.85,18,8,30,0.00
2013-4-9,45.1,42.6,37.8,39.6,36.7,30.8,85,80,69,30.10,29.85,7,2,17,0.23
2013-4-10,53.9,45.3,39.6,47.1,34.7,25.9,83,67,50,29.95,29.85,13,3,18,0.09
2013-4-11,50.9,45.3,40.8,39.0,30.4,18.9,83,58,30,30.13,29.81,13,4,24,0.01
2013-4-12,41.5,36.9,34.4,32.8,24.7,16.7,84,63,42,30.22,29.87,12,6,24,0.31
2013-4-13,45.8,38.3,34.6,38.0,31.5,26.5,84,76,71,29.88,29.75,15,6,24,0.14
2013-4-14,49.1,42.8,35.6,41.8,36.1,27.8,83,77,67,30.11,29.86,7,0,17,0.22
2013-4-15,46.5,40.5,31.5,40.1,34.0,21.5,83,77,66,30.39,30.11,16,5,20,0.00
2013-4-16,50.4,46.6,42.0,45.0,40.1,34.5,83,78,67,30.39,29.92,26,12,38,0.02
2013-4-17,60.8,53.1,40.4,48.4,35.5,26.3,81,54,29,30.31,29.90,23,11,35,0.03
2013-4-18,47.4,42.3,31.4,40.2,32.6,24.9,85,70,43,30.44,30.16,16,4,24,0.00
2013-4-19,61.2,53.1,46.9,53.9,40.0,30.9,82,62,41,30.16,29.64,31,13,33,0.00
2013-4-20,59.0,53.6,48.0,46.0,36.1,30.7,80,53,39,30.06,29.53,25,10,37,0.33
2013-4-21,50.9,43.1,32.4,30.7,25.7,19.2,81,52,30,30.65,30.05,19,7,27,0.00
2013-4-22,46.9,38.3,28.5,36.9,29.1,23.5,84,71,41,30.77,30.64,14,3,20,0.00
2013-4-23,44.0,40.2,32.3,37.4,33.7,27.4,83,78,69,30.65,30.16,12,3,17,0.01
2013-4-24,57.8,49.4,43.7,51.0,39.6,33.2,79,69,56,30.17,29.71,10,3,16,0.38
2013-4-25,62.2,53.5,41.7,45.3,37.0,31.1,80,55,34,30.23,29.77,22,9,33,0.06
2013-4-26,53.5,45.2,33.5,37.3,33.5,26.4,82,65,44,30.40,30.22,16,4,22,0.00
2013-4-27,54.5,44.3,32.6,40.2,34.4,24.6,81,69,52,30.38,30.27,11,3,15,0.00
2013-4-28,60.1,48.8,34.0,45.1,35.9,23.9,81,62,45,30.30,30.22,15,4,20,0.00
2013-4-29,59.0,48.2,34.2,47.3,38.4,26.1,80,69,51,30.25,30.19,12,3,19,0.00
2013-4-30,62.0,49.5,34.7,46.9,35.1,24.3,80,59,34,30.33,30.22,14,3,18,0.00
2013-5-1,62.6,50.2,33.7,42.1,33.8,26.6,82,58,28,30.42,30.32,15,4,20,0.00
2013-5-2,57.8,47.9,37.2,45.6,39.1,30.7,81,72,50,30.49,30.38,16,4,24,0.00
2013-5-3,63.1,50.0,41.6,47.3,41.6,36.5,82,73,56,30.52,30.34,16,3,19,0.00
2013-5-4,55.1,44.9,36.2,42.6,35.6,25.4,80,70,55,30.37,30.30,15,4,22,0.00
2013-5-5,56.5,45.5,32.5,43.4,34.2,20.6,80,65,51,30.32,30.22,17,4,24,0.00
2013-5-6,58.3,46.1,32.8,47.8,34.7,21.2,79,65,48,30.25,30.14,14,4,23,0.00
2013-5-7,66.8,15.6,-59.1,53.7,5.4,-88.2,72,44,38,30.15,30.07,18,5,24,0.00
2013-5-8,68.9,-4.8,-59.1,59.5,-19.4,-79.8,72,50,38,30.22,30.12,14,4,22,0.00
2013-5-9,-42.1,-47.5,-56.8,-57.5,-62.4,-71.0,39,39,39,30.13,29.88,10,4,16,0.39
2013-5-10,64.7,3.3,-50.7,56.6,-4.7,-70.2,77,48,28,29.93,29.86,11,3,18,0.00
2013-5-11,60.0,41.7,-39.3,45.6,-38.1,-89.0,65,46,36,29.93,29.67,22,9,28,0.00
2013-5-12,62.6,52.6,-59.1,49.7,-53.6,-87.9,80,44,28,29.70,29.50,15,4,24,0.00
2013-5-13,54.6,49.7,42.5,45.7,38.0,32.7,80,65,51,29.95,29.65,26,10,36,0.00
2013-5-14,55.1,48.0,41.5,41.2,36.7,33.2,80,66,45,29.97,29.89,17,3,20,0.00
2013-5-15,59.4,48.8,34.6,45.7,34.2,23.3,80,59,32,29.97,29.65,24,7,31,0.00
2013-5-16,69.6,59.9,50.3,57.4,30.2,-99.9,75,55,37,29.72,29.52,20,6,25,0.30
2013-5-17,63.7,56.0,45.5,46.5,42.7,39.0,79,62,41,30.15,29.71,22,7,28,0.00
2013-5-18,55.1,48.6,39.0,45.2,38.9,26.7,78,69,58,30.31,30.14,15,4,21,0.00
2013-5-19,55.4,50.0,43.0,47.5,38.6,28.0,78,66,41,30.35,30.22,16,5,20,0.00
2013-5-20,69.2,55.4,50.8,59.8,15.6,-99.9,75,51,40,30.24,29.88,15,4,25,1.12
2013-5-21,55.7,30.2,-39.3,30.2,-6.0,-101.3,46,42,34,30.03,29.95,10,3,18,0.00
2013-5-22,53.1,50.9,50.2,40.1,-22.4,-101.3,64,46,40,30.05,29.89,11,4,26,0.00
2013-5-23,61.3,55.1,49.9,40.1,-52.2,-99.9,47,39,32,29.93,29.80,20,6,26,0.88
2013-5-24,60.2,25.1,-34.8,42.2,-64.2,-103.9,70,35,32,29.80,29.62,24,9,33,1.95
2013-5-25,52.9,31.1,-59.1,41.5,15.8,-74.5,69,53,41,29.79,29.62,18,6,26,0.36
2013-5-26,55.9,0.8,-59.1,46.6,-17.2,-91.4,77,54,41,29.90,29.56,17,6,28,0.46
2013-5-27,66.9,55.0,43.3,43.6,39.2,36.3,77,58,33,30.11,29.90,23,8,30,0.00
2013-5-28,68.4,55.1,39.5,48.6,37.4,22.0,74,53,34,30.19,30.10,21,5,27,0.00
2013-5-29,52.4,19.4,-38.3,34.7,15.5,0.0,65,24,39,30.18,29.97,12,2,18,0.12
2013-5-30,82.1,20.3,-47.8,65.5,5.3,-67.6,74,48,28,29.98,29.92,15,5,24,0.00
2013-5-31,86.4,65.1,-39.3,68.3,38.7,-99.9,73,54,36,30.00,29.84,17,6,26,0.00
2013-6-1,82.9,72.0,60.3,68.8,57.1,34.5,72,60,37,29.87,29.77,18,5,32,0.00
2013-6-2,75.8,68.4,61.4,65.3,55.5,37.0,73,64,38,29.77,29.67,21,8,33,0.08
2013-6-3,70.0,44.9,-39.3,59.4,25.1,-99.9,71,48,29,29.78,29.67,20,7,26,0.00
2013-6-4,65.3,60.1,51.5,49.4,42.0,27.6,70,52,37,29.98,29.70,21,7,29,0.00
2013-6-5,67.2,57.8,45.0,48.8,43.4,27.9,73,59,44,30.11,29.97,19,4,26,0.00
2013-6-6,66.2,57.9,46.8,52.4,41.1,25.0,71,54,39,30.17,30.11,16,3,18,0.00
2013-6-7,59.5,56.2,53.2,49.6,41.1,30.9,72,58,40,30.14,29.93,12,4,17,0.03
2013-6-8,67.1,51.6,-39.3,56.6,31.6,-59.0,69,47,30,29.93,29.57,18,6,25,1.30
2013-6-9,67.2,61.3,57.1,56.7,44.8,32.2,70,56,38,30.08,29.89,12,3,16,0.51
2013-6-10,68.7,60.2,53.1,54.2,43.0,28.1,71,54,36,30.18,30.03,11,2,17,0.00
2013-6-11,57.4,55.8,54.6,34.4,30.1,28.9,42,37,36,30.04,29.47,17,4,28,1.12
2013-6-12,60.2,46.2,-39.3,48.9,25.3,-58.5,69,43,31,29.68,29.44,9,2,20,0.26
2013-6-13,66.9,59.7,54.4,53.6,45.8,32.8,71,61,43,29.74,29.67,9,2,15,0.04
2013-6-14,64.9,59.2,54.8,53.7,42.1,29.0,71,54,36,29.71,29.62,10,2,17,0.03
2013-6-15,75.6,64.1,52.6,51.4,42.6,26.8,70,47,34,29.84,29.67,18,5,27,0.00
2013-6-16,74.8,62.2,48.6,56.2,45.1,26.0,70,54,40,29.85,29.67,15,3,22,0.00
2013-6-17,75.6,64.6,53.9,60.3,44.3,27.6,65,49,35,29.81,29.67,16,4,23,0.36
2013-6-18,67.5,46.0,-39.3,54.9,28.3,-56.6,67,50,35,29.92,29.80,7,1,9,0.14
2013-6-19,70.9,65.6,56.6,50.4,45.0,33.0,57,48,38,29.94,29.88,11,3,19,0.00
2013-6-20,72.5,62.0,49.0,54.4,43.3,25.8,68,51,39,30.19,30.07,15,4,19,0.00
2013-6-21,77.7,64.2,53.0,59.8,44.6,27.9,70,50,36,30.18,30.12,17,2,20,0.00
2013-6-22,76.2,65.2,57.0,61.1,48.1,32.2,67,55,37,30.16,30.07,5,1,12,0.00
2013-6-23,75.1,67.3,62.9,62.1,47.1,36.3,66,49,35,30.10,29.91,12,3,20,0.00
2013-6-24,88.6,78.3,66.7,69.8,58.2,37.5,65,51,33,29.93,29.75,20,6,25,0.04
2013-6-25,85.4,76.4,67.6,68.1,58.9,39.7,66,55,33,29.79,29.66,14,3,20,0.09
2013-6-26,76.6,67.8,60.0,61.9,42.1,33.2,61,40,33,29.84,29.64,13,2,21,1.08
2013-6-27,61.0,37.8,-39.3,35.7,14.3,-56.2,45,38,36,29.85,29.81,11,4,20,0.04
2013-6-28,-9.3,-34.0,-39.3,-29.0,-59.5,-99.9,36,35,28,29.83,29.53,22,7,25,0.92
2013-6-29,68.3,-20.7,-39.8,44.0,-40.1,-60.5,65,36,28,29.66,29.53,17,6,26,0.00
2013-6-30,73.5,14.2,-48.4,57.4,-5.0,-64.4,62,41,28,29.90,29.65,15,8,26,0.00
2013-7-1,76.6,-12.3,-49.5,64.0,-29.7,-68.6,65,40,28,30.07,29.88,12,3,18,0.14
2013-7-2,61.4,-38.5,-54.5,38.0,-39.3,-68.8,42,29,36,30.18,30.05,20,3,23,0.47
2013-7-3,75.0,28.6,-56.8,63.7,19.5,-71.0,68,47,38,30.16,30.07,11,3,14,0.00
2013-7-4,87.3,76.1,66.0,72.9,23.5,-99.9,67,51,34,30.11,30.00,18,3,19,0.01
2013-7-5,88.3,79.0,71.2,72.5,10.8,-103.2,66,50,33,30.05,29.94,17,5,23,0.15
2013-7-6,88.4,79.8,74.3,70.7,0.3,-103.6,67,49,33,29.97,29.85,20,4,26,0.00
2013-7-7,87.7,78.2,66.5,68.8,59.8,39.2,68,54,36,29.90,29.83,22,4,24,0.00
2013-7-8,73.9,69.9,63.9,61.3,51.6,41.8,66,54,34,30.03,29.84,6,1,13,0.49
2013-7-9,67.3,64.9,63.0,52.4,41.2,0.0,63,43,35,30.08,30.03,7,2,16,0.01
2013-7-10,64.1,63.3,62.5,37.5,8.0,0.0,39,8,35,30.06,29.97,11,4,15,0.00
2013-7-11,-29.4,-33.6,-35.7,0.0,0.0,0.0,0,0,100,29.76,29.70,6,2,13,0.01
2013-7-12,78.2,70.8,61.5,61.0,56.8,46.9,72,62,44,30.16,29.91,10,2,17,0.04
2013-7-13,78.7,69.8,58.6,63.0,53.7,35.6,72,57,42,30.26,30.16,10,2,16,0.00
2013-7-14,84.8,74.2,61.7,68.7,58.5,38.1,70,59,38,30.24,30.13,8,2,16,0.00
2013-7-15,90.9,77.2,66.2,71.8,59.2,39.9,69,55,38,30.13,29.99,7,1,15,0.00
2013-7-16,84.9,72.7,68.6,68.0,52.4,44.1,65,49,40,30.06,30.02,0,0,0,0.00
2013-7-17,79.4,72.8,64.8,66.4,60.0,50.0,69,64,55,30.14,29.92,15,6,24,0.00
2013-7-18,83.4,75.5,69.8,66.1,55.1,42.3,68,50,34,29.95,29.86,12,3,20,0.34
2013-7-19,86.4,77.2,68.8,70.4,58.2,40.9,66,53,35,29.94,29.59,23,6,29,0.00
2013-7-20,85.5,79.1,69.8,69.3,63.9,51.5,67,60,47,29.71,29.54,18,5,26,0.00
2013-7-21,72.7,68.4,59.3,59.7,54.0,42.2,69,60,53,29.98,29.69,14,3,17,0.00
2013-7-22,71.5,64.9,57.7,58.8,48.5,33.7,69,56,39,30.00,29.91,8,2,13,0.00
2013-7-23,64.2,63.4,60.7,39.8,27.7,-99.9,46,37,35,29.91,29.74,6,1,11,0.01
2013-7-24,78.5,20.1,-34.0,65.8,24.9,0.0,69,27,54,29.91,29.52,11,2,24,0.02
2013-7-25,70.3,64.1,57.7,58.4,51.4,42.1,73,64,44,30.07,29.91,6,1,14,0.09
2013-7-26,68.6,66.1,61.6,51.7,43.3,38.7,59,44,36,30.06,29.81,13,3,19,0.59
2013-7-27,79.1,70.1,63.5,64.2,54.2,40.0,68,57,42,30.00,29.83,14,5,19,0.01
2013-7-28,63.8,24.7,-46.1,39.5,-7.5,-99.9,41,37,36,30.00,29.98,3,0,4,0.00
2013-7-29,71.6,67.6,64.8,58.3,43.9,0.0,63,45,38,30.00,29.98,5,3,12,0.02
2013-7-30,79.4,44.3,-47.8,62.6,29.1,0.0,68,29,46,30.01,29.95,9,2,18,0.00
2013-7-31,78.1,68.6,57.7,60.5,50.0,32.9,69,52,38,30.06,29.99,16,4,27,0.00
2013-8-1,74.7,66.2,57.8,62.3,45.3,0.0,67,50,36,30.01,29.86,9,2,21,0.00
2013-8-2,69.8,66.5,63.7,45.0,19.1,-99.9,43,36,35,29.87,29.72,6,2,14,0.40
2013-8-3,73.4,34.6,-52.2,61.4,11.6,-99.9,68,49,36,29.78,29.67,14,3,20,0.06
2013-8-4,77.2,65.9,58.4,59.5,47.7,32.9,67,52,36,29.76,29.67,9,2,28,0.07
2013-8-5,71.7,63.6,55.7,54.3,49.7,40.3,70,61,52,29.97,29.76,17,7,28,0.00
2013-8-6,75.3,60.2,49.1,56.5,43.0,26.5,67,53,40,30.11,29.96,16,2,21,0.00
2013-8-7,72.3,63.4,51.5,59.5,45.2,26.8,67,52,37,30.16,30.10,15,3,19,0.00
2013-8-8,68.6,64.7,60.3,44.0,37.1,33.3,41,36,34,30.10,29.99,10,2,16,0.12
2013-8-9,69.7,67.6,66.4,41.6,21.8,-99.9,36,35,34,29.99,29.67,15,5,31,0.03
2013-8-10,79.0,72.0,63.3,61.8,-2.8,-102.9,65,46,35,29.92,29.67,20,6,28,0.01
2013-8-11,76.4,65.1,52.4,57.3,49.9,30.6,71,58,42,29.99,29.91,14,4,21,0.00
2013-8-12,78.1,66.6,56.1,61.4,48.5,31.6,67,53,38,29.95,29.86,13,3,21,0.00
2013-8-13,74.2,65.6,57.7,60.8,43.8,31.6,65,46,34,29.87,29.66,15,2,17,0.00
2013-8-14,75.0,0.9,-49.5,63.1,-12.9,-67.1,68,52,28,29.80,29.55,13,4,24,0.00
2013-8-15,72.2,61.8,55.5,54.1,50.3,45.1,73,66,52,29.96,29.79,16,4,20,0.00
2013-8-16,74.8,64.2,53.3,58.9,45.3,27.7,69,51,36,30.13,30.02,10,2,16,0.00
2013-8-17,76.0,64.7,54.7,60.0,42.0,0.0,69,46,36,30.22,30.13,11,2,19,0.00
2013-8-18,76.8,64.0,52.1,61.2,42.8,0.0,67,48,35,30.22,30.00,9,1,15,0.00
2013-8-19,83.3,59.3,-39.3,65.3,40.4,-56.2,66,50,35,30.01,29.82,15,4,20,0.00
2013-8-20,74.3,65.3,62.5,61.3,39.3,34.5,64,39,35,29.97,29.88,0,0,0,0.00
2013-8-23,76.5,69.9,60.2,58.9,53.4,43.0,69,56,39,30.06,29.70,9,4,22,0.00
2013-8-24,75.9,63.1,50.4,55.4,46.2,28.6,69,55,42,30.25,30.07,6,2,15,0.00
2013-8-25,76.6,63.4,50.5,56.9,43.9,25.8,67,49,36,30.30,30.13,10,2,18,0.00
2013-8-26,74.6,65.5,57.6,61.7,46.3,31.5,66,51,36,30.12,29.82,12,2,21,0.00
2013-8-27,80.2,70.1,61.6,65.6,48.1,0.0,66,48,33,29.85,29.79,6,1,14,0.00
2013-8-28,76.6,66.0,60.9,63.0,36.8,0.0,66,38,34,29.94,29.84,7,2,15,0.00
2013-8-29,67.4,66.8,63.9,47.9,29.5,0.0,56,28,34,30.02,29.93,6,2,16,0.00
2013-8-30,73.8,63.8,53.5,60.9,43.1,0.0,65,49,30,29.99,29.73,11,2,18,0.00
2013-8-31,78.2,69.1,65.0,64.6,39.3,0.0,64,38,34,29.77,29.72,8,1,25,0.00
2013-9-1,80.9,50.4,-35.7,67.6,29.6,0.0,66,29,38,29.88,29.72,7,1,16,0.00
2013-9-2,68.8,66.1,-49.5,41.5,0.5,-99.9,37,3,35,29.89,29.71,10,4,23,0.00
2013-9-3,-34.4,-38.2,-43.2,0.0,-3.7,-62.0,28,2,28,29.73,29.66,8,2,16,0.01
2013-9-4,-28.7,-42.5,-59.1,0.0,0.0,0.0,0,0,100,29.84,29.68,16,4,22,0.01
2013-9-5,-59.1,-59.1,-59.1,0.0,0.0,0.0,0,0,100,29.92,29.81,5,1,12,0.01
2013-9-6,0.0,0.0,0.0,0.0,0.0,0.0,0,0,100,30.17,30.07,9,2,17,0.01
2013-9-7,0.0,0.0,0.0,0.0,0.0,0.0,0,0,100,30.00,29.74,10,2,16,0.01
2013-9-8,0.0,0.0,0.0,0.0,0.0,0.0,0,0,100,30.01,29.65,16,5,31,0.00
2013-9-9,0.0,0.0,0.0,0.0,0.0,0.0,0,0,100,30.16,30.02,10,2,18,0.00
2013-9-10,0.0,0.0,0.0,0.0,0.0,0.0,0,0,100,30.08,30.02,16,5,25,0.00
2013-9-11,0.0,-30.5,-39.8,0.0,-38.6,-60.0,65,22,28,30.04,29.88,13,2,29,0.00
2013-9-12,-39.8,-45.0,-50.1,-60.0,-60.0,-60.0,28,28,28,29.98,29.64,17,4,28,0.00
2013-9-13,-40.4,-44.3,-50.7,-60.0,-60.0,-60.0,28,28,28,29.68,29.57,11,2,20,0.00
2013-9-14,-40.4,-48.4,-59.1,-60.0,-60.0,-60.0,28,28,28,29.99,29.67,10,2,16,0.00
2013-9-15,-59.1,-59.1,-59.1,-60.0,-60.0,-60.0,28,28,28,30.10,29.98,16,3,22,0.00
2013-9-16,-59.1,-59.1,-59.1,-60.0,-60.0,-60.0,28,28,28,30.24,29.95,14,4,23,0.00
2013-9-17,-59.1,-59.1,-59.1,-60.0,-60.0,-60.0,28,28,28,30.37,30.24,14,2,18,0.00
2013-9-18,-59.1,-59.1,-59.1,-60.0,-60.0,-60.0,28,28,28,30.28,30.08,13,2,19,0.00
2013-9-19,-59.1,-59.1,-59.1,-60.0,-60.0,-60.0,28,28,28,30.11,29.99,10,2,16,0.00
2013-9-20,-59.1,-59.1,-59.1,-60.0,-60.0,-60.0,28,28,28,30.08,30.01,10,2,13,0.00
2013-9-21,-39.2,-50.2,-59.1,-60.0,-60.0,-60.0,28,28,28,30.03,29.78,19,7,29,0.00
2013-9-22,-59.1,-59.1,-59.1,-60.0,-60.0,-60.0,28,28,28,29.78,29.60,23,8,35,0.00
2013-9-23,0.0,-44.0,-59.1,0.0,-44.7,-60.0,28,21,28,29.91,29.72,20,8,28,0.00
2013-9-24,0.0,0.0,0.0,0.0,0.0,0.0,0,0,100,29.90,29.81,13,4,25,0.00
2013-9-25,0.0,0.0,0.0,0.0,0.0,0.0,0,0,100,29.94,29.82,10,2,20,0.00
2013-9-26,0.0,0.0,0.0,0.0,0.0,0.0,0,0,100,30.09,29.94,18,4,23,0.00
2013-9-27,0.0,0.0,0.0,0.0,0.0,0.0,0,0,100,30.22,30.09,9,1,15,0.00
2013-9-28,0.0,0.0,0.0,0.0,0.0,0.0,0,0,100,30.31,30.22,12,2,18,0.00
2013-9-29,0.0,-3.4,-47.2,0.0,0.0,0.0,0,0,100,30.26,30.12,12,2,13,0.00
2013-9-30,-44.4,-52.9,-59.1,0.0,0.0,0.0,0,0,100,30.14,29.95,6,1,12,0.00
2013-10-1,68.0,-27.5,-59.1,54.5,14.2,0.0,96,24,61,29.95,29.80,13,2,17,0.00
2013-10-2,77.9,61.8,46.1,60.4,52.8,45.3,97,75,50,29.86,29.71,13,2,17,0.00
2013-10-3,73.5,58.4,43.6,53.1,48.3,42.5,97,73,41,30.03,29.86,10,2,18,0.00
2013-10-4,71.1,56.4,41.9,55.0,48.7,40.8,97,79,39,30.07,29.99,8,2,12,0.00
2013-10-5,60.1,53.7,45.3,52.3,46.7,44.2,96,78,57,30.13,30.06,4,1,7,0.00
2013-10-6,56.7,50.5,43.8,48.5,42.3,38.3,97,75,53,30.27,30.13,6,2,11,0.05
2013-10-7,65.0,58.9,50.6,63.8,57.6,47.2,98,96,88,30.21,29.79,18,6,32,0.63
2013-10-8,63.7,54.1,37.8,61.2,45.6,36.5,97,75,48,30.38,29.80,15,4,25,0.01
2013-10-9,60.1,45.6,33.3,46.8,38.7,32.5,98,80,47,30.47,30.35,10,2,12,0.00
2013-10-10,62.2,46.5,32.5,49.8,41.5,31.7,98,85,58,30.36,30.18,6,2,13,0.00
2013-10-11,66.5,52.6,41.1,56.2,48.1,40.3,98,87,54,30.18,30.10,4,1,6,0.00
2013-10-12,57.8,52.7,44.9,52.4,48.5,43.8,97,86,69,30.41,30.17,12,2,13,0.00
2013-10-13,57.7,48.9,37.2,48.5,43.3,36.4,97,83,57,30.46,30.38,9,2,13,0.00
2013-10-14,59.0,46.0,32.8,50.0,42.3,32.0,98,88,68,30.38,30.24,9,2,13,0.00
2013-10-15,66.1,55.8,49.0,53.8,50.7,47.9,97,84,59,30.26,30.20,6,2,13,0.00
2013-10-16,57.4,54.6,50.1,54.8,52.9,49.3,98,94,87,30.21,29.89,8,2,11,0.00
2013-10-17,62.8,55.7,49.1,58.2,53.8,48.3,99,94,83,29.89,29.72,9,3,13,0.00
2013-10-18,67.0,56.6,48.6,59.7,52.3,46.7,99,87,56,29.79,29.56,17,4,24,0.28
2013-10-19,61.4,52.7,40.6,50.7,45.1,38.8,95,77,49,29.91,29.75,11,3,20,0.00
2013-10-20,62.4,54.5,41.1,54.0,43.5,32.9,96,69,35,29.92,29.65,12,4,23,0.00
2013-10-21,60.5,46.0,31.7,46.8,39.3,30.7,97,80,43,30.05,29.92,9,2,15,0.00
2013-10-22,61.9,53.9,42.6,55.0,50.1,41.5,97,87,70,29.97,29.67,18,5,24,0.01
2013-10-23,53.5,42.9,31.4,42.7,37.4,30.9,98,83,49,29.75,29.56,9,1,11,0.01
2013-10-24,49.6,43.6,33.5,39.0,32.8,28.3,95,68,44,29.78,29.56,11,4,19,0.00
2013-10-25,51.2,42.0,31.4,34.8,31.8,27.4,85,68,49,30.06,29.78,13,4,17,0.00
2013-10-26,51.0,40.0,26.9,39.1,33.0,25.4,95,77,53,30.09,29.85,16,4,25,0.00
2013-10-27,55.2,46.2,40.6,44.4,38.0,29.8,95,74,54,29.97,29.75,10,4,19,0.12
2013-10-28,54.2,40.3,28.5,39.8,31.3,25.3,96,72,49,30.32,29.97,12,4,23,0.00
2013-10-29,47.2,34.3,24.7,29.2,24.7,18.9,93,71,32,30.43,30.32,6,2,13,0.00
2013-10-30,47.9,34.6,24.5,35.2,26.8,23.0,95,76,43,30.34,30.14,7,2,15,0.00
2013-10-31,57.1,42.7,24.9,56.0,40.4,23.4,96,92,77,30.24,29.79,13,5,23,0.38
2013-11-1,62.0,58.9,56.9,60.0,56.4,51.6,97,91,80,29.76,29.35,27,12,36,0.49
2013-11-2,63.2,51.2,38.4,50.5,45.1,37.8,98,81,50,29.73,29.52,7,2,14,0.00
2013-11-3,46.9,37.4,28.4,39.3,26.6,20.0,90,66,43,30.39,29.73,10,3,17,0.02
2013-11-4,41.0,30.4,22.5,23.7,20.8,17.7,93,70,41,30.70,30.39,6,2,18,0.00
2013-11-5,23.7,22.4,21.8,21.5,20.8,20.3,94,94,93,30.70,30.69,1,0,2,0.00
2013-11-6,52.8,48.2,29.0,50.2,44.1,28.0,96,86,78,30.41,29.97,15,8,25,0.00
2013-11-7,58.5,54.7,52.7,55.9,52.5,49.8,96,92,90,29.97,29.62,16,10,25,0.00
2013-11-8,45.4,39.8,33.9,28.5,26.2,24.9,70,58,48,29.93,29.76,13,6,19,0.41
2013-11-9,43.7,36.4,27.0,26.5,24.3,21.0,88,63,43,30.09,29.93,14,4,19,0.00
2013-11-10,44.5,37.8,29.1,42.6,35.9,25.2,97,93,85,30.07,29.69,4,1,7,0.10
2013-11-11,45.7,40.1,36.4,36.0,33.4,30.4,97,78,58,29.96,29.70,13,3,18,0.00
2013-11-12,46.2,34.2,26.6,33.7,22.5,16.5,80,62,55,30.06,29.79,17,7,22,0.00
2013-11-13,34.2,27.9,23.3,17.6,15.3,13.3,77,59,46,30.18,30.06,14,5,18,0.00
2013-11-14,47.0,33.5,23.0,29.5,25.1,17.6,93,73,46,30.07,29.95,7,2,16,0.00
2013-11-15,52.3,34.4,23.5,36.8,27.5,22.0,95,79,42,30.17,30.06,6,2,11,0.00
2013-11-16,53.1,36.3,26.8,45.0,33.2,25.0,97,89,72,30.33,30.16,4,1,7,0.00
2013-11-17,52.2,44.7,30.8,50.8,42.5,28.9,98,92,79,30.34,29.93,9,2,19,0.05
2013-11-18,58.5,50.9,37.9,57.1,48.8,37.1,98,93,75,29.93,29.46,20,7,36,0.44
2013-11-19,39.8,35.4,31.2,37.1,24.1,18.2,97,65,49,30.15,29.54,26,9,26,0.00
2013-11-20,38.1,30.8,23.4,20.3,15.3,12.0,84,54,35,30.60,30.15,15,6,21,0.00
2013-11-21,46.6,30.3,19.6,25.3,20.4,10.8,91,71,23,30.61,30.31,5,1,10,0.00
2013-11-22,40.2,33.1,25.2,32.6,28.4,23.2,93,83,56,30.30,29.75,3,1,6,0.00
2013-11-23,39.4,34.1,24.2,36.0,24.1,16.3,96,69,42,29.75,29.62,17,6,24,0.03
2013-11-24,28.7,23.0,19.1,21.4,7.4,3.8,74,51,40,29.95,29.62,21,11,33,0.00
2013-11-25,28.1,21.2,16.8,15.2,5.4,1.6,78,52,33,30.29,29.95,16,6,24,0.00
2013-11-26,33.0,29.3,21.7,30.9,26.1,15.2,96,88,76,30.29,30.15,7,2,16,0.05
2013-11-27,57.3,49.7,32.2,56.7,48.8,30.9,98,97,92,30.15,29.10,24,8,38,2.79
2013-11-28,39.3,29.9,19.4,36.5,18.9,7.8,92,64,43,30.35,29.23,21,7,30,0.00
2013-11-29,26.1,20.7,15.5,11.7,9.5,5.5,80,62,42,30.72,30.35,13,4,19,0.00
2013-11-30,34.5,21.3,11.2,28.9,13.3,7.8,91,73,41,30.80,30.43,12,2,19,0.00
2013-12-1,38.6,35.3,33.0,35.3,32.6,26.2,98,90,66,30.40,30.06,11,2,20,0.60
2013-12-2,45.0,41.0,34.9,43.3,40.1,34.4,98,96,92,30.06,29.89,7,2,14,0.45
2013-12-3,42.1,37.5,32.2,39.7,36.1,29.6,99,95,87,29.89,29.80,9,3,17,0.01
2013-12-4,41.4,33.1,25.3,30.6,27.9,24.1,95,82,63,30.20,29.83,13,3,17,0.00
2013-12-5,49.1,37.2,23.5,48.8,35.8,22.3,99,95,88,30.24,29.88,6,2,13,0.01
2013-12-6,49.3,43.2,35.9,49.0,40.6,29.4,99,91,71,30.08,29.83,6,2,12,0.09
2013-12-7,37.4,32.0,24.2,30.3,19.6,9.7,92,61,46,30.38,30.03,16,6,21,0.01
2013-12-8,27.1,23.0,18.2,16.4,11.3,6.9,82,61,43,30.57,30.38,14,3,21,0.00
2013-12-9,25.9,24.3,23.1,13.6,12.7,11.6,65,61,56,30.54,30.43,5,2,10,0.00
2013-12-10,33.4,28.1,20.4,31.8,25.1,14.4,96,89,74,29.87,29.69,8,3,14,0.00
2013-12-11,28.2,21.7,11.8,18.4,15.3,9.7,92,77,60,30.09,29.87,12,4,21,0.01
2013-12-12,20.6,14.9,8.2,13.7,3.0,-2.5,76,59,44,30.21,30.08,18,5,22,0.00
2013-12-13,24.0,16.2,5.0,11.3,2.7,-5.3,71,55,42,30.37,29.89,14,8,28,0.00
2013-12-14,15.8,8.5,-0.3,12.3,-2.5,-7.4,88,61,39,30.60,30.37,13,3,14,0.00
2013-12-15,24.3,15.5,5.9,23.1,13.5,3.4,95,91,89,30.37,29.33,18,5,27,0.00
2013-12-16,20.4,9.2,-2.3,15.6,3.2,-5.4,91,77,61,30.18,29.64,11,4,23,0.00
2013-12-17,15.4,6.3,-10.7,11.8,1.4,-14.2,91,80,66,30.30,30.02,5,2,10,0.00
2013-12-18,24.0,14.9,-0.1,19.3,12.3,-2.7,93,90,81,30.02,29.81,13,4,16,0.00
2013-12-19,33.1,19.8,-1.3,28.2,16.8,-4.5,96,88,78,30.07,29.89,4,1,11,0.02
2013-12-20,41.5,31.0,23.6,37.4,29.3,21.9,97,93,83,30.12,29.89,3,0,6,0.00
2013-12-21,36.5,34.0,31.4,35.5,33.1,30.4,98,97,94,29.93,29.81,11,2,14,0.13
2013-12-22,34.6,30.7,28.0,33.3,29.6,26.8,98,96,93,30.07,29.87,16,5,18,0.44
2013-12-23,32.9,31.0,28.4,32.4,30.3,27.7,98,97,97,30.09,29.95,4,2,9,0.30
2013-12-24,33.5,24.0,13.1,32.1,20.6,9.7,97,87,81,30.14,30.03,13,6,17,0.00
2013-12-25,17.7,10.9,5.9,12.7,6.8,2.2,92,83,76,30.55,30.14,15,6,20,0.00
2013-12-26,34.5,21.8,7.9,33.6,20.1,5.2,97,93,90,30.51,30.03,7,3,14,0.24
2013-12-27,30.5,21.4,9.4,27.0,18.9,7.3,93,90,84,30.18,30.09,8,2,13,0.00
2013-12-28,34.5,24.3,12.9,31.9,22.4,11.5,96,92,87,30.15,29.92,14,2,18,0.00
2013-12-29,36.3,27.1,15.8,35.2,26.0,14.1,98,95,93,30.03,29.48,7,2,14,0.65
2013-12-30,30.7,20.0,5.6,26.9,16.0,0.8,95,84,68,30.16,29.44,19,7,25,0.03
2013-12-31,8.3,2.1,-1.5,-0.4,-2.6,-4.3,89,80,63,30.17,30.11,5,3,11,0.00
2014-1-2,-3.4,-4.6,-5.7,-6.8,-8.1,-9.5,85,84,83,30.21,29.98,18,11,24,0.00